Time;durP1;ratioP1;P1;durP2;ratioP2;P2;SDS_P1;SDS_P2;PMS_P1;PMS_P2;Temp;Humidity;BMP_temperature;BMP_pressure;BME280_temperature;BME280_humidity;BME280_pressure;Samples;Min_cycle;Max_cycle;Signal;HPM_P1;HPM_P2
2023/03/17 00:01:02;;;;;;;0.40;0.40;;;;;;;4.10;58.67;101344.75;4990971;28;20101;-77
2023/03/17 00:03:32;;;;;;;0.28;0.28;;;;;;;4.08;58.65;101336.19;5009943;28;20183;-77
2023/03/17 00:05:59;;;;;;;0.43;0.43;;;;;;;4.05;58.64;101341.09;5032663;28;20120;-78
2023/03/17 00:08:36;;;;;;;0.93;0.93;;;;;;;3.98;59.55;101350.91;4993737;28;20082;-77
2023/03/17 00:11:01;;;;;;;;;;;;;;;3.98;59.24;101341.13;5035076;28;20119;-77
2023/03/17 00:13:29;;;;;;;0.00;0.00;;;;;;;4.10;58.83;101336.78;5017527;28;21116;-77
2023/03/17 00:15:59;;;;;;;0.50;0.50;;;;;;;4.03;59.68;101328.06;5048572;28;20127;-77
2023/03/17 00:18:24;;;;;;;;;;;;;;;4.06;58.87;101335.59;5014668;28;20169;-77
2023/03/17 00:20:50;;;;;;;0.00;0.00;;;;;;;4.09;58.75;101323.75;5027423;28;20557;-76
2023/03/17 00:23:23;;;;;;;0.35;0.35;;;;;;;4.09;58.86;101327.22;5011000;28;20196;-77
2023/03/17 00:25:52;;;;;;;0.32;0.32;;;;;;;4.04;59.33;101337.63;4994734;28;20176;-76
2023/03/17 00:28:23;;;;;;;1.02;1.02;;;;;;;4.01;59.50;101340.72;5009907;28;20085;-77
2023/03/17 00:30:53;;;;;;;;;;;;;;;4.08;59.41;101330.91;4998944;28;20097;-77
2023/03/17 00:33:22;;;;;;;0.28;0.28;;;;;;;4.02;58.95;101334.38;5013134;28;20466;-75
2023/03/17 00:35:48;;;;;;;0.35;0.35;;;;;;;4.01;58.88;101334.59;5017174;28;20081;-77
2023/03/17 00:38:20;;;;;;;2.05;2.00;;;;;;;4.03;59.21;101328.06;5014038;28;20432;-80
2023/03/17 00:40:46;;;;;;;0.38;0.38;;;;;;;3.98;59.63;101313.81;5032868;28;20093;-76
2023/03/17 00:43:12;;;;;;;;;;;;;;;3.99;59.43;101326.84;5018242;28;20105;-78
2023/03/17 00:45:38;;;;;;;0.00;0.00;;;;;;;4.01;59.68;101324.81;5043743;28;22233;-77
2023/03/17 00:48:12;;;;;;;0.20;0.20;;;;;;;4.20;58.60;101319.59;5009776;28;20122;-78
2023/03/17 00:50:38;;;;;;;0.32;0.32;;;;;;;4.04;59.61;101327.03;5019642;28;20172;-78
2023/03/17 00:53:09;;;;;;;0.30;0.30;;;;;;;3.95;60.02;101317.72;5013825;28;20846;-78
2023/03/17 00:55:36;;;;;;;0.70;0.70;;;;;;;3.92;59.50;101331.38;5033118;28;20104;-78
2023/03/17 00:58:11;;;;;;;0.28;0.28;;;;;;;3.93;59.87;101322.41;5031728;28;20164;-77
2023/03/17 01:00:37;;;;;;;0.22;0.22;;;;;;;3.88;60.14;101311.63;5032874;28;20168;-77
2023/03/17 01:03:03;;;;;;;0.30;0.30;;;;;;;3.91;60.03;101313.03;4986461;28;20117;-79
2023/03/17 01:05:28;;;;;;;0.90;0.90;;;;;;;3.87;60.32;101302.06;5042786;28;20124;-77
2023/03/17 01:07:56;;;;;;;0.38;0.38;;;;;;;3.88;60.21;101294.91;4998010;28;20455;-79
2023/03/17 01:10:25;;;;;;;0.45;0.45;;;;;;;3.85;60.67;101290.84;5031494;28;20090;-77
2023/03/17 01:12:53;;;;;;;0.35;0.35;;;;;;;3.75;60.93;101295.78;5034459;28;20104;-77
2023/03/17 01:15:21;;;;;;;0.20;0.20;;;;;;;3.63;61.77;101308.06;5011694;28;20093;-76
2023/03/17 01:17:49;;;;;;;2.05;1.95;;;;;;;3.42;62.94;101309.97;5031638;28;20084;-77
2023/03/17 01:20:40;;;;;;;0.32;0.32;;;;;;;3.23;63.46;101327.50;5015528;28;20595;-77
2023/03/17 01:23:05;;;;;;;0.55;0.55;;;;;;;3.31;62.45;101317.72;5026438;28;20093;-78
2023/03/17 01:25:32;;;;;;;0.45;0.45;;;;;;;3.26;63.11;101319.19;5016484;28;20092;-79
2023/03/17 01:27:58;;;;;;;0.28;0.28;;;;;;;3.32;62.97;101325.47;5030398;28;20096;-78
2023/03/17 01:30:37;;;;;;;0.47;0.47;;;;;;;3.25;63.00;101332.59;5020600;28;20089;-76
2023/03/17 01:33:04;;;;;;;0.43;0.43;;;;;;;3.07;64.10;101332.44;5015410;28;20108;-77
2023/03/17 01:35:30;;;;;;;0.65;0.65;;;;;;;3.16;63.18;101325.91;5031905;28;20074;-78
2023/03/17 01:37:56;;;;;;;0.80;0.80;;;;;;;3.16;63.26;101316.13;5031472;28;20139;-76
2023/03/17 01:40:24;;;;;;;;;;;;;;;3.14;63.64;101315.53;5012451;28;21072;-76
2023/03/17 01:43:16;;;;;;;0.00;0.00;;;;;;;3.18;63.59;101308.78;5036612;28;20458;-78
2023/03/17 01:46:08;;;;;;;0.57;0.57;;;;;;;3.16;63.75;101310.03;5011335;28;20097;-78
2023/03/17 01:48:37;;;;;;;0.13;0.13;;;;;;;3.20;63.74;101295.38;5018241;28;20085;-78
2023/03/17 01:51:05;;;;;;;0.50;0.50;;;;;;;3.23;63.78;101297.59;5023769;28;20137;-78
2023/03/17 01:53:34;;;;;;;0.28;0.28;;;;;;;3.19;63.87;101286.63;5061071;28;20579;-78
2023/03/17 01:56:02;;;;;;;0.25;0.25;;;;;;;3.25;63.77;101293.72;5028927;28;20089;-77
2023/03/17 01:58:28;;;;;;;1.40;1.40;;;;;;;3.19;63.75;101281.31;5024805;28;20116;-79
2023/03/17 02:00:54;;;;;;;0.95;0.95;;;;;;;3.15;63.93;101276.63;5022238;28;20121;-77
2023/03/17 02:03:22;;;;;;;1.40;1.40;;;;;;;3.11;64.08;101286.00;5020021;28;20207;-79
2023/03/17 02:05:51;;;;;;;0.25;0.25;;;;;;;3.11;64.06;101286.00;5041227;28;20091;-78
2023/03/17 02:08:17;;;;;;;0.32;0.32;;;;;;;3.12;64.07;101287.66;5015754;28;20177;-76
2023/03/17 02:10:44;;;;;;;0.32;0.32;;;;;;;3.07;64.46;101271.56;5044624;28;20550;-78
2023/03/17 02:13:13;;;;;;;0.50;0.50;;;;;;;3.07;64.40;101275.03;5028594;28;20102;-77
2023/03/17 02:15:47;;;;;;;0.25;0.25;;;;;;;3.12;64.41;101277.88;5047400;28;20126;-76
2023/03/17 02:18:13;;;;;;;1.60;1.60;;;;;;;3.16;64.42;101267.69;5019430;28;20087;-79
2023/03/17 02:20:39;;;;;;;0.32;0.32;;;;;;;3.23;64.40;101250.75;5017362;28;20107;-76
2023/03/17 02:23:06;;;;;;;;;;;;;;;3.22;64.23;101248.31;5021029;28;20113;-77
2023/03/17 02:25:34;;;;;;;0.00;0.00;;;;;;;3.36;63.52;101247.25;5009522;28;20535;-77
2023/03/17 02:28:09;;;;;;;0.10;0.10;;;;;;;3.27;64.14;101240.56;5028231;28;20223;-77
2023/03/17 02:30:34;;;;;;;0.60;0.60;;;;;;;3.15;64.85;101250.19;5013165;28;20078;-77
2023/03/17 02:33:01;;;;;;;0.88;0.88;;;;;;;3.12;65.03;101245.31;5019468;28;20593;-78
2023/03/17 02:35:27;;;;;;;0.38;0.38;;;;;;;3.18;64.59;101239.16;5026659;28;20081;-78
2023/03/17 02:37:52;;;;;;;1.90;1.90;;;;;;;3.20;64.95;101242.44;5015208;28;20093;-78
2023/03/17 02:40:19;;;;;;;1.10;1.10;;;;;;;3.20;64.98;101253.03;5027442;28;20143;-77
2023/03/17 02:42:45;;;;;;;1.30;1.30;;;;;;;3.15;65.36;101255.47;5028709;28;20097;-79
2023/03/17 02:45:12;;;;;;;;;;;;;;;3.19;65.08;101264.63;4996593;28;20082;-76
2023/03/17 02:47:37;;;;;;;0.00;0.00;;;;;;;3.25;65.04;101255.84;5026847;28;20456;-76
2023/03/17 02:50:04;;;;;;;1.42;1.42;;;;;;;3.25;65.13;101256.66;4994844;28;20314;-78
2023/03/17 02:52:30;;;;;;;0.15;0.15;;;;;;;3.17;65.45;101248.13;5017758;28;20136;-76
2023/03/17 02:54:56;;;;;;;0.28;0.28;;;;;;;3.18;65.45;101244.44;5004255;28;20563;-78
2023/03/17 02:57:22;;;;;;;;;;;;;;;3.11;65.77;101257.69;5012693;28;20699;-77
2023/03/17 02:59:48;;;;;;;;;;;;;;;3.11;65.63;101247.13;5032496;28;20009;-79
2023/03/17 03:02:14;;;;;;;0.00;0.00;;;;;;;3.16;65.63;101242.03;5028767;28;20988;-77
2023/03/17 03:04:40;;;;;;;;;;;;;;;3.11;66.17;101246.31;5021677;28;20101;-76
2023/03/17 03:07:06;;;;;;;0.00;0.00;;;;;;;3.18;65.65;101255.03;5005104;28;20468;-77
2023/03/17 03:09:34;;;;;;;0.20;0.20;;;;;;;3.08;66.23;101246.72;5008722;28;20078;-77
2023/03/17 03:12:00;;;;;;;;;;;;;;;3.01;66.39;101266.09;5027269;28;20097;-77
2023/03/17 03:14:25;;;;;;;0.00;0.00;;;;;;;3.03;66.76;101262.41;5016328;28;20831;-79
2023/03/17 03:16:51;;;;;;;;;;;;;;;3.09;66.48;101272.16;5029971;28;20081;-77
2023/03/17 03:19:17;;;;;;;0.00;0.00;;;;;;;3.09;66.21;101272.97;5027762;28;20462;-79
2023/03/17 03:21:43;;;;;;;;;;;;;;;3.09;66.22;101266.88;5011649;28;20101;-79
2023/03/17 03:24:09;;;;;;;0.00;0.00;;;;;;;3.24;65.68;101257.66;5024683;28;20553;-79
2023/03/17 03:26:35;;;;;;;0.85;0.85;;;;;;;3.14;66.03;101265.25;5016216;28;20110;-80
2023/03/17 03:29:01;;;;;;;;;;;;;;;3.14;65.94;101249.38;5011854;28;20110;-80
2023/03/17 03:31:26;;;;;;;0.00;0.00;;;;;;;3.20;65.99;101247.72;5029640;28;20513;-78
2023/03/17 03:33:52;;;;;;;;;;;;;;;3.26;65.57;101252.19;5034721;28;20090;-78
2023/03/17 03:36:18;;;;;;;0.00;0.00;;;;;;;3.22;66.07;101246.47;5043409;28;20463;-79
2023/03/17 03:38:43;;;;;;;;;;;;;;;3.22;65.74;101240.38;5028890;28;20094;-78
2023/03/17 03:41:10;;;;;;;;;;;;;;;3.25;65.58;101242.59;5028420;28;19985;-77
2023/03/17 03:43:35;;;;;;;;;;;;;;;3.15;66.38;101245.69;5044924;28;20012;-79
2023/03/17 03:46:03;;;;;;;0.00;0.00;;;;;;;3.16;66.38;101246.50;5031151;28;20496;-78
2023/03/17 03:48:29;;;;;;;;;;;;;;;3.15;66.23;101235.09;5013721;28;20077;-79
2023/03/17 03:50:56;;;;;;;;;;;;;;;3.05;66.51;101223.31;5019000;28;20643;-78
2023/03/17 03:53:22;;;;;;;;;;;;;;;3.02;66.72;101208.69;5050783;28;19986;-78
2023/03/17 03:55:47;;;;;;;0.00;0.00;;;;;;;3.06;66.67;101203.81;5017666;28;20468;-80
2023/03/17 03:58:13;;;;;;;1.00;1.00;;;;;;;3.01;66.63;101207.88;5016509;28;20093;-77
2023/03/17 04:00:39;;;;;;;1.40;1.40;;;;;;;2.98;66.89;101191.59;5027088;28;20899;-78
2023/03/17 04:03:05;;;;;;;0.45;0.45;;;;;;;2.92;67.06;101193.25;5010423;28;20110;-79
2023/03/17 04:05:31;;;;;;;0.43;0.43;;;;;;;2.94;66.96;101191.19;5010175;28;20086;-78
2023/03/17 04:07:57;;;;;;;0.25;0.25;;;;;;;2.98;66.68;101178.34;5013542;28;20082;-79
2023/03/17 04:10:22;;;;;;;0.20;0.20;;;;;;;3.01;66.89;101194.63;5025952;28;20082;-81
2023/03/17 04:12:48;;;;;;;0.80;0.80;;;;;;;2.91;67.09;101190.78;5011372;28;20101;-79
2023/03/17 04:15:16;;;;;;;1.45;1.45;;;;;;;2.80;67.54;101181.69;5015079;28;20088;-79
2023/03/17 04:17:41;;;;;;;0.15;0.15;;;;;;;2.86;67.65;101183.50;4994048;28;20104;-78
2023/03/17 04:20:11;;;;;;;0.50;0.50;;;;;;;2.74;68.24;101190.44;5013415;28;20109;-79
2023/03/17 04:22:38;;;;;;;0.30;0.30;;;;;;;2.79;67.82;101181.88;5029858;28;20116;-79
2023/03/17 04:25:04;;;;;;;0.20;0.20;;;;;;;2.79;67.77;101174.78;5010533;28;20101;-78
2023/03/17 04:27:30;;;;;;;0.20;0.20;;;;;;;2.73;67.73;101184.34;5026780;28;20086;-78
2023/03/17 04:29:55;;;;;;;;;;;;;;;2.66;68.09;101188.03;4999385;28;20104;-78
2023/03/17 04:32:21;;;;;;;0.00;0.00;;;;;;;2.56;68.72;101200.84;5012709;28;20595;-79
2023/03/17 04:34:46;;;;;;;;;;;;;;;2.49;68.96;101202.66;5029492;28;20139;-80
2023/03/17 04:37:13;;;;;;;0.10;0.10;;;;;;;2.52;68.88;101197.81;5027686;28;20463;-79
2023/03/17 04:39:38;;;;;;;;;;;;;;;2.49;69.03;101184.16;5030160;28;20543;-78
2023/03/17 04:42:05;;;;;;;0.00;0.00;;;;;;;2.44;69.09;101185.63;5018569;28;21084;-80
2023/03/17 04:44:31;;;;;;;0.57;0.57;;;;;;;2.42;69.38;101187.63;5010653;28;20232;-79
2023/03/17 04:46:56;;;;;;;;;;;;;;;2.49;69.09;101202.66;5029370;28;20089;-78
2023/03/17 04:49:22;;;;;;;;;;;;;;;2.47;68.69;101206.34;5014887;28;19977;-78
2023/03/17 04:51:47;;;;;;;0.00;0.00;;;;;;;2.50;68.84;101189.25;5047946;28;20980;-80
2023/03/17 04:54:13;;;;;;;;;;;;;;;2.52;68.60;101191.69;5041221;28;20096;-78
2023/03/17 04:56:38;;;;;;;0.00;0.00;;;;;;;2.46;69.06;101188.84;5009688;28;20460;-81
2023/03/17 04:59:04;;;;;;;;;;;;;;;2.42;68.86;101198.19;5011940;28;20113;-79
2023/03/17 05:01:30;;;;;;;0.00;0.00;;;;;;;2.36;69.08;101193.72;5029733;28;20476;-78
2023/03/17 05:03:56;;;;;;;;;;;;;;;2.38;68.97;101175.03;5049674;28;20211;-78
2023/03/17 05:06:21;;;;;;;0.00;0.00;;;;;;;2.41;69.17;101175.44;5022640;28;20480;-80
2023/03/17 05:08:47;;;;;;;1.95;1.85;;;;;;;2.42;68.96;101169.13;5015070;28;20089;-80
2023/03/17 05:11:13;;;;;;;1.50;1.50;;;;;;;2.27;69.59;101176.47;5033830;28;20184;-80
2023/03/17 05:13:42;;;;;;;;;;;;;;;2.29;69.48;101174.41;5015187;28;20151;-78
2023/03/17 05:16:08;;;;;;;0.00;0.00;;;;;;;2.28;69.58;101186.00;5033521;28;20458;-79
2023/03/17 05:18:35;;;;;;;1.95;1.85;;;;;;;2.22;69.64;101191.28;5043380;28;20096;-79
2023/03/17 05:21:01;;;;;;;0.25;0.25;;;;;;;2.23;69.75;101174.41;5046997;28;20100;-78
2023/03/17 05:23:28;;;;;;;1.48;1.45;;;;;;;2.19;70.04;101174.03;5013190;28;20108;-79
2023/03/17 05:25:53;;;;;;;0.32;0.32;;;;;;;2.18;70.01;101159.19;5015558;28;20097;-80
2023/03/17 05:28:19;;;;;;;1.73;1.65;;;;;;;2.12;70.37;101154.72;5013220;28;20451;-79
2023/03/17 05:30:46;;;;;;;1.48;1.45;;;;;;;2.16;70.02;101158.56;5032952;28;20536;-78
2023/03/17 05:33:13;;;;;;;2.05;1.95;;;;;;;2.25;69.67;101154.72;5019229;28;20097;-79
2023/03/17 05:35:39;;;;;;;1.77;1.70;;;;;;;2.19;70.16;101142.31;5044390;28;20104;-78
2023/03/17 05:38:06;;;;;;;1.73;1.65;;;;;;;2.07;70.78;101134.19;5031269;28;20570;-79
2023/03/17 05:40:32;;;;;;;1.73;1.65;;;;;;;2.11;70.28;101137.25;5025523;28;20085;-79
2023/03/17 05:42:57;;;;;;;1.83;1.75;;;;;;;2.07;70.74;101141.31;5030721;28;20120;-79
2023/03/17 05:45:23;;;;;;;0.40;0.40;;;;;;;2.23;70.12;101148.81;4997651;28;20097;-79
2023/03/17 05:47:49;;;;;;;1.58;1.55;;;;;;;2.18;70.07;101138.06;5000142;28;20704;-79
2023/03/17 05:50:15;;;;;;;1.55;1.52;;;;;;;2.11;70.43;101147.81;5034878;28;20070;-79
2023/03/17 05:52:40;;;;;;;1.50;1.48;;;;;;;2.30;69.29;101141.69;4999040;28;20112;-79
2023/03/17 05:55:07;;;;;;;1.55;1.52;;;;;;;2.22;69.61;101139.25;5025796;28;20090;-79
2023/03/17 05:57:33;;;;;;;0.20;0.20;;;;;;;2.24;69.93;101139.88;5028409;28;20074;-80
2023/03/17 05:59:58;;;;;;;1.60;1.55;;;;;;;2.23;69.74;101140.06;5028371;28;20124;-81
2023/03/17 06:02:24;;;;;;;1.40;1.40;;;;;;;2.28;69.96;101138.44;4996834;28;20098;-79
2023/03/17 06:04:50;;;;;;;1.73;1.65;;;;;;;2.29;69.79;101144.53;5014037;28;20549;-79
2023/03/17 06:07:16;;;;;;;1.90;1.80;;;;;;;2.23;70.27;101146.16;5013280;28;20105;-79
2023/03/17 06:09:42;;;;;;;0.30;0.30;;;;;;;2.27;69.90;101141.28;5029357;28;20081;-80
2023/03/17 06:12:08;;;;;;;;;;;;;;;2.44;69.23;101137.22;5029335;28;20085;-79
2023/03/17 06:14:34;;;;;;;0.00;0.00;;;;;;;2.55;69.25;101139.22;5030541;28;21130;-78
2023/03/17 06:16:59;;;;;;;;;;;;;;;2.63;69.62;101140.81;5048390;28;20111;-79
2023/03/17 06:19:25;;;;;;;0.00;0.00;;;;;;;2.68;68.98;101144.47;5013247;28;20459;-77
2023/03/17 06:21:51;;;;;;;1.75;1.67;;;;;;;2.65;69.10;101144.09;5030749;28;20588;-78
2023/03/17 06:24:16;;;;;;;;;;;;;;;2.77;68.61;101137.13;5028550;28;20085;-80
2023/03/17 06:26:42;;;;;;;0.00;0.00;;;;;;;2.89;68.09;101142.56;5011553;28;20819;-79
2023/03/17 06:29:08;;;;;;;2.15;2.05;;;;;;;2.84;68.60;101137.91;5031982;28;20086;-77
2023/03/17 06:31:35;;;;;;;1.88;1.77;;;;;;;2.85;68.98;101133.44;5033263;28;20086;-78
2023/03/17 06:34:02;;;;;;;2.35;2.25;;;;;;;2.81;68.77;101133.03;5028143;28;20081;-79
2023/03/17 06:36:29;;;;;;;1.70;1.65;;;;;;;2.85;68.61;101123.69;5014328;28;20148;-79
2023/03/17 06:38:54;;;;;;;2.05;1.95;;;;;;;2.98;68.34;101128.91;5042818;28;20535;-80
2023/03/17 06:41:20;;;;;;;1.85;1.75;;;;;;;3.04;68.00;101121.16;4997633;28;20117;-78
2023/03/17 06:43:46;;;;;;;1.95;1.85;;;;;;;3.17;67.70;101127.19;5044605;28;20098;-78
2023/03/17 06:46:12;;;;;;;2.05;1.95;;;;;;;3.28;66.96;101128.38;5030102;28;20446;-80
2023/03/17 06:48:37;;;;;;;1.75;1.67;;;;;;;3.31;67.33;101138.53;5013441;28;20089;-79
2023/03/17 06:51:04;;;;;;;0.28;0.28;;;;;;;3.25;67.90;101129.63;5028351;28;20085;-79
2023/03/17 06:53:30;;;;;;;1.90;1.80;;;;;;;3.27;67.56;101132.84;5026076;28;20094;-77
2023/03/17 06:55:56;;;;;;;1.73;1.65;;;;;;;3.32;67.20;101129.56;4998796;28;20461;-78
2023/03/17 06:58:23;;;;;;;1.60;1.55;;;;;;;3.35;67.32;101131.78;5048565;28;20176;-79
2023/03/17 07:00:52;;;;;;;0.30;0.30;;;;;;;3.77;66.39;101132.13;5035979;28;20235;-79
2023/03/17 07:03:19;;;;;;;1.83;1.75;;;;;;;4.03;65.43;101126.63;5027716;28;20090;-79
2023/03/17 07:05:45;;;;;;;1.75;1.67;;;;;;;4.26;65.33;101138.47;5044962;28;20113;-78
2023/03/17 07:08:11;;;;;;;1.83;1.75;;;;;;;4.54;64.73;101128.22;5029092;28;20090;-79
2023/03/17 07:10:37;;;;;;;0.57;0.57;;;;;;;4.48;63.97;101123.78;5028582;28;20085;-79
2023/03/17 07:13:06;;;;;;;0.55;0.55;;;;;;;4.63;64.26;101124.22;5032520;28;20101;-79
2023/03/17 07:15:34;;;;;;;0.38;0.38;;;;;;;4.81;63.50;101133.19;5050117;28;20593;-80
2023/03/17 07:18:01;;;;;;;0.25;0.25;;;;;;;4.61;63.73;101134.25;5030882;28;20736;-80
2023/03/17 07:20:27;;;;;;;1.77;1.73;;;;;;;4.91;63.05;101136.16;5033800;28;20109;-77
2023/03/17 07:23:21;;;;;;;0.30;0.30;;;;;;;5.11;63.11;101136.72;5030448;28;20171;-78
2023/03/17 07:25:47;;;;;;;2.22;2.13;;;;;;;5.16;62.57;101142.19;5037683;28;20117;-79
2023/03/17 07:28:14;;;;;;;1.75;1.67;;;;;;;5.29;61.57;101129.78;5031127;28;20164;-79
2023/03/17 07:30:45;;;;;;;2.20;2.10;;;;;;;5.21;61.71;101136.19;5030384;28;20078;-79
2023/03/17 07:33:16;;;;;;;0.25;0.25;;;;;;;5.14;62.42;101140.78;5030684;28;20180;-79
2023/03/17 07:35:42;;;;;;;2.05;1.95;;;;;;;5.40;62.15;101142.28;5028780;28;20094;-78
2023/03/17 07:38:08;;;;;;;0.30;0.30;;;;;;;5.56;61.09;101146.97;5002856;28;20078;-81
2023/03/17 07:40:35;;;;;;;1.83;1.75;;;;;;;5.69;60.13;101135.31;5015500;28;20094;-78
2023/03/17 07:43:00;;;;;;;0.28;0.28;;;;;;;5.91;59.58;101132.97;5018459;28;20123;-79
2023/03/17 07:45:26;;;;;;;0.30;0.30;;;;;;;5.98;58.92;101128.38;4999538;28;20547;-78
2023/03/17 07:47:52;;;;;;;0.28;0.28;;;;;;;6.30;58.97;101136.84;4995903;28;20086;-78
2023/03/17 07:50:18;;;;;;;0.50;0.50;;;;;;;6.21;60.25;101130.22;5011135;28;20093;-78
2023/03/17 07:52:44;;;;;;;0.40;0.40;;;;;;;6.34;58.38;101131.84;5025857;28;20094;-79
2023/03/17 07:55:11;;;;;;;;;;;;;;;6.07;59.08;101128.84;5027459;28;20487;-78
2023/03/17 07:57:37;;;;;;;0.00;0.00;;;;;;;6.05;59.39;101129.06;5012631;28;20466;-77
2023/03/17 08:00:08;;;;;;;0.45;0.45;;;;;;;6.03;60.10;101125.84;5030254;28;20090;-79
2023/03/17 08:02:37;;;;;;;0.60;0.60;;;;;;;6.33;60.12;101115.09;5045903;28;20171;-79
2023/03/17 08:05:03;;;;;;;0.32;0.32;;;;;;;6.59;57.98;101112.97;5018272;28;20647;-79
2023/03/17 08:07:30;;;;;;;1.60;1.60;;;;;;;6.83;57.72;101120.66;5010966;28;20089;-78
2023/03/17 08:09:56;;;;;;;0.40;0.40;;;;;;;6.94;57.53;101118.22;5012337;28;20826;-79
2023/03/17 08:12:22;;;;;;;0.17;0.17;;;;;;;7.07;57.18;101115.28;5012041;28;20109;-79
2023/03/17 08:14:48;;;;;;;0.30;0.30;;;;;;;7.26;56.18;101108.72;4993924;28;20148;-78
2023/03/17 08:17:14;;;;;;;0.32;0.32;;;;;;;7.47;54.76;101104.56;5013387;28;20078;-80
2023/03/17 08:19:40;;;;;;;0.30;0.30;;;;;;;7.78;54.47;101105.06;5010141;28;20078;-80
2023/03/17 08:22:05;;;;;;;0.53;0.53;;;;;;;7.92;54.38;101093.88;5025099;28;20120;-79
2023/03/17 08:24:31;;;;;;;0.35;0.35;;;;;;;8.06;54.04;101090.84;5025066;28;20699;-79
2023/03/17 08:26:57;;;;;;;0.45;0.45;;;;;;;8.33;53.52;101085.63;5028124;28;20082;-78
2023/03/17 08:29:23;;;;;;;0.83;0.83;;;;;;;8.13;53.19;101088.84;5044798;28;20433;-79
2023/03/17 08:31:48;;;;;;;;;;;;;;;8.40;53.76;101108.47;5030306;28;20140;-80
2023/03/17 08:34:15;;;;;;;0.00;0.00;;;;;;;8.31;53.67;101109.91;5030646;28;20478;-78
2023/03/17 08:36:41;;;;;;;;;;;;;;;8.35;53.08;101105.72;5030613;28;20116;-78
2023/03/17 08:39:09;;;;;;;0.00;0.00;;;;;;;8.46;52.95;101112.00;5013795;28;20494;-79
2023/03/17 08:41:35;;;;;;;;;;;;;;;8.67;53.81;101102.41;5031437;28;20094;-77
2023/03/17 08:44:01;;;;;;;0.00;0.00;;;;;;;8.75;52.23;101110.00;5034139;28;20516;-78
2023/03/17 08:46:27;;;;;;;;;;;;;;;8.91;52.53;101108.31;5028558;28;20840;-79
2023/03/17 08:48:54;;;;;;;;;;;;;;;8.98;50.45;101107.06;5030007;28;20079;-79
2023/03/17 08:51:21;;;;;;;;;;;;;;;9.27;51.51;101106.81;5027463;28;19966;-79
2023/03/17 08:53:47;;;;;;;0.00;0.00;;;;;;;9.28;49.56;101093.22;5027230;28;20474;-79
2023/03/17 08:56:13;;;;;;;;;;;;;;;9.41;50.88;101102.69;5017639;28;20636;-79
2023/03/17 08:58:41;;;;;;;;;;;;;;;9.43;50.24;101105.94;5040867;28;19961;-80
2023/03/17 09:01:09;;;;;;;0.00;0.00;;;;;;;9.55;50.70;101098.56;5031289;28;20466;-79
2023/03/17 09:03:37;;;;;;;0.25;0.25;;;;;;;9.56;49.00;101086.00;5034061;28;20104;-78
2023/03/17 09:06:05;;;;;;;0.20;0.20;;;;;;;9.83;49.28;101075.25;5011168;28;20121;-79
2023/03/17 09:08:38;;;;;;;0.30;0.30;;;;;;;9.94;49.00;101068.91;5030529;28;20096;-79
2023/03/17 09:11:06;;;;;;;0.32;0.32;;;;;;;10.11;49.28;101069.56;5031233;28;20315;-77
2023/03/17 09:13:33;;;;;;;0.50;0.50;;;;;;;10.19;49.38;101076.28;5019748;28;20520;-77
2023/03/17 09:15:58;;;;;;;0.32;0.32;;;;;;;10.22;48.12;101064.25;5047019;28;20085;-77
2023/03/17 09:18:25;;;;;;;0.30;0.30;;;;;;;10.47;48.84;101066.31;5031907;28;20125;-76
2023/03/17 09:20:50;;;;;;;;;;;;;;;10.54;48.06;101061.50;5031065;28;20118;-77
2023/03/17 09:23:16;;;;;;;0.00;0.00;;;;;;;10.57;48.29;101061.00;5029112;28;20464;-77
2023/03/17 09:25:42;;;;;;;0.60;0.60;;;;;;;10.45;47.94;101058.53;5013026;28;20113;-77
2023/03/17 09:28:10;;;;;;;;;;;;;;;10.27;47.92;101059.78;5014605;28;20207;-78
2023/03/17 09:30:36;;;;;;;0.00;0.00;;;;;;;10.24;48.18;101062.19;5028861;28;20454;-77
2023/03/17 09:33:02;;;;;;;0.45;0.45;;;;;;;10.28;47.68;101055.22;5044458;28;20149;-77
2023/03/17 09:35:30;;;;;;;0.32;0.32;;;;;;;9.96;48.03;101060.66;5048492;28;20159;-78
2023/03/17 09:37:56;;;;;;;1.90;1.90;;;;;;;10.18;49.41;101065.84;5046855;28;20139;-78
2023/03/17 09:40:27;;;;;;;;;;;;;;;10.29;48.20;101064.88;5001284;28;20617;-78
2023/03/17 09:43:06;;;;;;;0.00;0.00;;;;;;;10.40;48.19;101066.53;5032457;28;20489;-78
2023/03/17 09:45:33;;;;;;;;;;;;;;;10.52;48.01;101069.81;5032466;28;20143;-77
2023/03/17 09:48:10;;;;;;;;;;;;;;;10.76;47.62;101064.00;5017427;28;19992;-77
2023/03/17 09:51:06;;;;;;;;;;;;;;;10.71;46.94;101058.66;5030953;28;20040;-77
2023/03/17 09:53:35;;;;;;;;;;;;;;;10.94;46.92;101050.94;4998178;28;19978;-76
2023/03/17 09:56:10;;;;;;;;;;;;;;;10.97;46.71;101046.13;5035029;28;19965;-76
2023/03/17 09:58:36;;;;;;;;;;;;;;;11.12;46.68;101046.97;5014977;28;19957;-76
2023/03/17 10:01:04;;;;;;;;;;;;;;;11.34;46.91;101037.88;5028935;28;19996;-78
2023/03/17 10:03:30;;;;;;;;;;;;;;;11.38;46.11;101033.56;5045387;28;19989;-77
2023/03/17 10:05:59;;;;;;;;;;;;;;;11.43;47.13;101022.84;5030498;28;19995;-76
2023/03/17 10:08:28;;;;;;;;;;;;;;;11.80;46.50;101019.09;5031695;28;19975;-78
2023/03/17 10:10:57;;;;;;;;;;;;;;;12.02;46.75;101028.47;5036096;28;19965;-78
2023/03/17 10:13:48;;;;;;;;;;;;;;;11.76;46.74;101024.97;5030577;28;19986;-77
2023/03/17 10:16:18;;;;;;;;;;;;;;;11.56;46.43;101030.38;5028188;28;19969;-77
2023/03/17 10:18:48;;;;;;;;;;;;;;;11.41;47.19;101025.00;5020372;28;20763;-77
2023/03/17 10:21:16;;;;;;;;;;;;;;;11.26;45.78;101023.13;5030265;28;19997;-77
2023/03/17 10:23:42;;;;;;;;;;;;;;;11.27;46.12;101029.28;5015853;28;19979;-79
2023/03/17 10:26:16;;;;;;;;;;;;;;;11.63;46.36;101030.91;5013794;28;19975;-77
2023/03/17 10:28:41;;;;;;;;;;;;;;;12.09;46.00;101033.56;5048611;28;19965;-79
2023/03/17 10:31:15;;;;;;;;;;;;;;;12.09;45.05;101022.81;5012985;28;19969;-78
2023/03/17 10:33:41;;;;;;;;;;;;;;;12.21;45.51;101007.22;5027827;28;19988;-78
2023/03/17 10:36:08;;;;;;;;;;;;;;;12.08;44.96;101009.66;5034100;28;19969;-77
2023/03/17 10:38:33;;;;;;;;;;;;;;;12.12;44.97;101016.09;5032487;28;19973;-78
2023/03/17 10:41:02;;;;;;;;;;;;;;;12.46;43.41;101014.38;5009880;28;20372;-77
2023/03/17 10:43:29;;;;;;;;;;;;;;;12.90;43.88;101008.22;5042924;28;20048;-76
2023/03/17 10:46:00;;;;;;;;;;;;;;;12.72;43.52;101014.22;5033734;28;19969;-77
2023/03/17 10:48:26;;;;;;;;;;;;;;;12.52;44.25;101009.75;5022602;28;19965;-76
2023/03/17 10:50:51;;;;;;;;;;;;;;;12.80;44.11;101014.47;5013232;28;19971;-76
2023/03/17 10:53:26;;;;;;;;;;;;;;;13.10;43.67;101016.16;4999402;28;20799;-77
2023/03/17 10:55:55;;;;;;;;;;;;;;;13.33;43.25;101019.25;5028272;28;20015;-77
2023/03/17 10:58:31;;;;;;;;;;;;;;;13.15;42.75;101011.84;5031466;28;20415;-77
2023/03/17 11:01:02;;;;;;;;;;;;;;;13.26;43.29;101014.19;5035863;28;19985;-77
2023/03/17 11:03:30;;;;;;;;;;;;;;;13.55;42.84;101010.75;5009284;28;19988;-78
2023/03/17 11:05:59;;;;;;;;;;;;;;;13.29;42.78;101008.25;5015525;28;19979;-78
2023/03/17 11:08:29;;;;;;;;;;;;;;;13.46;43.25;101007.03;5032573;28;19970;-76
2023/03/17 11:10:55;;;;;;;;;;;;;;;13.74;42.98;101008.13;5030757;28;19999;-76
2023/03/17 11:13:27;;;;;;;;;;;;;;;13.78;42.33;101004.59;5031557;28;19981;-77
2023/03/17 11:15:57;;;;;;;;;;;;;;;13.57;42.48;101013.94;5029416;28;20011;-78
2023/03/17 11:18:27;;;;;;;;;;;;;;;13.65;44.07;101008.75;5028019;28;19965;-77
2023/03/17 11:20:58;;;;;;;;;;;;;;;13.84;43.65;100998.06;5027189;28;20012;-80
2023/03/17 11:23:30;;;;;;;;;;;;;;;13.78;42.59;100991.13;5013483;28;19978;-77
2023/03/17 11:26:07;;;;;;;;;;;;;;;13.81;43.85;100990.56;5030556;28;19984;-78
2023/03/17 11:28:37;;;;;;;;;;;;;;;13.66;42.32;100980.75;5012891;28;19961;-77
2023/03/17 11:31:16;;;;;;;;;;;;;;;13.83;42.41;100980.31;5032288;28;20050;-78
2023/03/17 11:33:50;;;;;;;;;;;;;;;14.21;43.17;100977.72;5032860;28;20075;-78
2023/03/17 11:36:35;;;;;;;;;;;;;;;14.35;42.06;100980.53;5029279;28;19964;-77
2023/03/17 11:39:19;;;;;;;;;;;;;;;14.19;40.12;100974.53;5019387;28;19964;-77
2023/03/17 11:41:45;;;;;;;;;;;;;;;14.60;40.75;100974.03;5038834;28;20083;-78
2023/03/17 11:44:23;;;;;;;;;;;;;;;14.68;41.06;100968.00;5047373;28;20450;-77
2023/03/17 11:47:07;;;;;;;;;;;;;;;14.53;40.33;100968.22;5052205;28;20078;-77
2023/03/17 11:49:37;;;;;;;;;;;;;;;14.73;41.25;100960.63;5028536;28;20486;-78
2023/03/17 11:52:20;;;;;;;;;;;;;;;14.82;40.74;100960.75;5024575;28;20079;-78
2023/03/17 11:55:06;;;;;;;;;;;;;;;14.88;40.50;100962.31;5028671;28;20347;-79
2023/03/17 11:57:47;;;;;;;;;;;;;;;15.13;40.59;100957.63;5010717;28;20007;-79